Time;durP1;ratioP1;P1;durP2;ratioP2;P2;SDS_P1;SDS_P2;PMS_P1;PMS_P2;Temp;Humidity;BMP_temperature;BMP_pressure;BME280_temperature;BME280_humidity;BME280_pressure;Samples;Min_cycle;Max_cycle;Signal;HPM_P1;HPM_P2
2021/07/07 00:01:38;;;;;;;7.30;4.47;;;;;;;24.42;57.97;96996.31;5052244;28;20033;-58
2021/07/07 00:04:03;;;;;;;9.70;5.18;;;;;;;24.42;57.94;96998.22;5052951;28;20489;-58
2021/07/07 00:06:29;;;;;;;9.43;5.05;;;;;;;24.34;58.16;96989.16;5051690;28;20024;-58
2021/07/07 00:08:54;;;;;;;9.52;5.45;;;;;;;24.29;58.45;96979.91;5052806;28;20069;-58
2021/07/07 00:11:19;;;;;;;10.48;5.55;;;;;;;24.32;58.01;96979.47;5053170;28;20082;-58
2021/07/07 00:13:45;;;;;;;10.00;5.50;;;;;;;24.36;58.12;96987.06;5051724;28;20469;-56
2021/07/07 00:16:11;;;;;;;9.15;5.03;;;;;;;24.28;58.15;96990.06;5052879;28;20053;-58
2021/07/07 00:18:36;;;;;;;8.23;5.40;;;;;;;24.23;58.32;96987.97;5053024;28;20029;-58
2021/07/07 00:21:02;;;;;;;9.65;4.70;;;;;;;24.24;58.15;96986.91;5051588;28;20025;-59
2021/07/07 00:23:29;;;;;;;7.68;5.00;;;;;;;24.11;58.38;96988.88;5052764;28;20028;-59
2021/07/07 00:25:55;;;;;;;7.32;4.82;;;;;;;24.15;58.31;96984.63;5053101;28;20030;-58
2021/07/07 00:28:21;;;;;;;9.25;4.53;;;;;;;24.14;58.29;96997.50;5052917;28;20033;-58
2021/07/07 00:30:48;;;;;;;9.57;4.60;;;;;;;24.14;57.97;97000.25;5051545;28;20033;-59
2021/07/07 00:33:15;;;;;;;6.70;4.53;;;;;;;24.22;57.69;97000.00;5052722;28;20071;-59
2021/07/07 00:35:40;;;;;;;9.75;4.57;;;;;;;24.16;58.01;96992.66;5052679;28;20047;-56
2021/07/07 00:38:08;;;;;;;9.70;4.43;;;;;;;24.19;57.58;96985.88;5055770;28;20021;-57
2021/07/07 00:40:33;;;;;;;7.45;4.22;;;;;;;24.21;57.36;96981.00;5055518;28;20043;-58
2021/07/07 00:42:59;;;;;;;7.15;4.10;;;;;;;24.27;57.33;96982.88;5056515;28;20045;-58
2021/07/07 00:45:24;;;;;;;8.43;4.53;;;;;;;24.13;57.47;96986.75;5056596;28;20028;-58
2021/07/07 00:47:50;;;;;;;9.10;4.90;;;;;;;24.02;57.83;96997.34;5054989;28;20018;-58
2021/07/07 00:50:16;;;;;;;7.00;4.30;;;;;;;24.12;57.56;96993.28;5056202;28;20082;-58
2021/07/07 00:52:42;;;;;;;12.20;4.53;;;;;;;24.03;57.91;96993.56;5055267;28;20484;-58
2021/07/07 00:55:09;;;;;;;8.48;4.90;;;;;;;24.06;57.62;96997.75;5053500;28;20388;-58
2021/07/07 00:57:35;;;;;;;7.57;4.70;;;;;;;24.01;57.72;96992.06;5054216;28;20454;-59
2021/07/07 01:00:12;;;;;;;8.18;4.55;;;;;;;23.82;58.22;96986.41;5054457;28;20096;-58
2021/07/07 01:02:38;;;;;;;8.30;4.78;;;;;;;23.75;58.21;96991.09;5032598;28;20029;-59
2021/07/07 01:05:05;;;;;;;7.35;4.45;;;;;;;23.83;58.15;96996.34;5032653;28;20017;-59
2021/07/07 01:07:31;;;;;;;10.43;4.47;;;;;;;23.90;57.73;96996.34;5033504;28;20034;-60
2021/07/07 01:09:56;;;;;;;9.07;4.75;;;;;;;23.82;57.79;97002.88;5035366;28;20025;-60
2021/07/07 01:12:21;;;;;;;9.55;4.20;;;;;;;23.83;57.93;96996.34;5034655;28;20026;-59
2021/07/07 01:14:49;;;;;;;7.88;4.40;;;;;;;23.87;57.96;96996.75;5034829;28;20033;-60
2021/07/07 01:17:17;;;;;;;10.13;4.70;;;;;;;23.81;58.13;96994.88;5034992;28;20026;-60
2021/07/07 01:19:42;;;;;;;8.88;4.75;;;;;;;23.90;57.60;96993.59;5035821;28;20030;-60
2021/07/07 01:22:08;;;;;;;9.82;4.57;;;;;;;23.86;57.59;96995.06;5036319;28;20037;-59
2021/07/07 01:24:33;;;;;;;10.30;4.38;;;;;;;23.76;58.28;96991.94;5035539;28;20060;-59
2021/07/07 01:26:59;;;;;;;7.70;4.10;;;;;;;23.72;58.06;96997.84;5034560;28;20394;-59
2021/07/07 01:29:24;;;;;;;8.48;4.22;;;;;;;23.76;57.70;96990.03;5034571;28;20029;-60
2021/07/07 01:31:49;;;;;;;8.43;4.35;;;;;;;23.72;57.78;96986.03;5034444;28;20401;-60
2021/07/07 01:34:15;;;;;;;6.05;3.85;;;;;;;23.64;58.13;96995.34;5034327;28;20034;-59
2021/07/07 01:36:40;;;;;;;5.75;4.13;;;;;;;23.65;57.71;96990.69;5035553;28;20030;-60
2021/07/07 01:39:09;;;;;;;10.95;4.05;;;;;;;23.67;57.44;96983.94;5034615;28;20037;-59
2021/07/07 01:41:35;;;;;;;11.80;4.00;;;;;;;23.78;57.21;96993.41;5034163;28;20485;-59
2021/07/07 01:44:00;;;;;;;8.57;4.00;;;;;;;23.67;57.31;96985.84;5034037;28;20577;-59
2021/07/07 01:46:26;;;;;;;9.00;4.22;;;;;;;23.49;57.49;96992.00;5035312;28;20053;-59
2021/07/07 01:48:52;;;;;;;8.43;4.00;;;;;;;23.57;57.35;96994.50;5033911;28;20033;-59
2021/07/07 01:51:18;;;;;;;6.88;4.00;;;;;;;23.60;57.24;96985.00;5034145;28;20462;-59
2021/07/07 01:53:44;;;;;;;9.38;3.95;;;;;;;23.57;57.33;96986.28;5035311;28;20079;-59
2021/07/07 01:56:09;;;;;;;7.30;4.00;;;;;;;23.45;57.88;96988.00;5033930;28;20030;-59
2021/07/07 01:58:35;;;;;;;6.28;3.60;;;;;;;23.55;57.69;96991.97;5035251;28;20105;-59
2021/07/07 02:01:01;;;;;;;7.55;4.20;;;;;;;23.51;57.68;96989.91;5035358;28;20056;-59
2021/07/07 02:03:26;;;;;;;5.72;3.72;;;;;;;23.50;57.89;96983.53;5035295;28;20032;-59
2021/07/07 02:05:52;;;;;;;11.20;4.20;;;;;;;23.56;57.34;96976.38;5033555;28;20107;-59
2021/07/07 02:08:17;;;;;;;7.18;4.15;;;;;;;23.54;57.24;96973.00;5033646;28;20038;-59
2021/07/07 02:10:43;;;;;;;7.28;3.70;;;;;;;23.51;57.73;96970.69;5035088;28;20492;-60
2021/07/07 02:13:10;;;;;;;6.53;3.65;;;;;;;23.55;57.47;96963.69;5034201;28;20036;-59
2021/07/07 02:15:36;;;;;;;7.82;4.00;;;;;;;23.54;57.66;96964.75;5034671;28;20437;-59
2021/07/07 02:18:03;;;;;;;7.63;3.75;;;;;;;23.52;57.68;96964.97;5033480;28;20540;-59
2021/07/07 02:20:35;;;;;;;9.50;4.00;;;;;;;23.48;57.83;96968.38;5034672;28;20116;-59
2021/07/07 02:23:01;;;;;;;6.88;3.80;;;;;;;23.43;58.01;96962.69;5034604;28;20026;-59
2021/07/07 02:25:30;;;;;;;8.27;3.70;;;;;;;23.37;58.17;96967.09;5035124;28;20030;-59
2021/07/07 02:27:57;;;;;;;6.78;3.50;;;;;;;23.42;58.14;96972.81;5033267;28;20084;-60
2021/07/07 02:30:26;;;;;;;7.72;3.55;;;;;;;23.40;58.03;96964.78;5033298;28;20045;-59
2021/07/07 02:32:55;;;;;;;7.25;3.88;;;;;;;23.42;57.80;96963.75;5034342;28;20107;-60
2021/07/07 02:35:23;;;;;;;8.00;3.85;;;;;;;23.43;57.69;96968.19;5033247;28;20037;-60
2021/07/07 02:37:50;;;;;;;6.85;3.47;;;;;;;23.37;57.93;96967.09;5034870;28;20028;-60
2021/07/07 02:40:16;;;;;;;5.38;3.67;;;;;;;23.37;58.22;96967.09;5034321;28;20022;-60
2021/07/07 02:42:41;;;;;;;7.30;3.72;;;;;;;23.45;57.83;96958.69;5033979;28;20044;-59
2021/07/07 02:45:08;;;;;;;7.10;3.58;;;;;;;23.48;57.79;96954.66;5034127;28;20031;-59
2021/07/07 02:47:33;;;;;;;5.65;3.70;;;;;;;23.51;57.81;96955.03;5034392;28;20433;-59
2021/07/07 02:49:59;;;;;;;6.65;3.72;;;;;;;23.48;57.86;96946.44;5034282;28;20033;-59
2021/07/07 02:52:24;;;;;;;5.95;3.72;;;;;;;23.56;57.78;96954.41;5034407;28;20088;-59
2021/07/07 02:54:50;;;;;;;7.43;3.90;;;;;;;23.51;57.74;96949.56;5034259;28;20025;-60
2021/07/07 02:57:18;;;;;;;7.18;3.35;;;;;;;23.44;57.78;96950.63;5033946;28;20039;-59
2021/07/07 02:59:44;;;;;;;6.40;3.65;;;;;;;23.41;57.69;96949.19;5033607;28;20441;-60
2021/07/07 03:02:09;;;;;;;6.82;3.72;;;;;;;23.47;57.22;96947.47;5032621;28;20041;-60
2021/07/07 03:04:35;;;;;;;5.05;3.10;;;;;;;23.49;57.26;96956.31;5032632;28;20087;-60
2021/07/07 03:07:02;;;;;;;5.07;3.20;;;;;;;23.40;57.42;96958.47;5032566;28;20454;-60
2021/07/07 03:09:27;;;;;;;5.05;3.15;;;;;;;23.45;57.03;96953.19;5032408;28;20116;-60
2021/07/07 03:11:53;;;;;;;7.28;3.15;;;;;;;23.47;56.74;96956.53;5033796;28;20029;-60
2021/07/07 03:14:18;;;;;;;5.68;3.20;;;;;;;23.42;56.76;96959.09;5033609;28;20052;-60
2021/07/07 03:16:43;;;;;;;4.93;3.10;;;;;;;23.45;56.41;96969.66;5034005;28;20115;-60
2021/07/07 03:19:09;;;;;;;5.68;3.25;;;;;;;23.43;56.46;96969.00;5033870;28;20031;-60
2021/07/07 03:21:34;;;;;;;5.25;3.30;;;;;;;23.43;56.57;96971.75;5032473;28;20494;-60
2021/07/07 03:24:00;;;;;;;7.65;3.42;;;;;;;23.36;56.55;96971.75;5033775;28;20025;-60
2021/07/07 03:26:25;;;;;;;5.10;3.03;;;;;;;23.29;56.81;96970.94;5032261;28;20047;-60
2021/07/07 03:28:51;;;;;;;6.00;3.15;;;;;;;23.24;57.04;96970.75;5032558;28;20037;-60
2021/07/07 03:31:16;;;;;;;5.18;3.00;;;;;;;23.20;56.71;96972.22;5015741;28;20030;-60
2021/07/07 03:33:41;;;;;;;5.97;3.20;;;;;;;23.23;56.76;96969.88;5027541;28;20021;-59
2021/07/07 03:36:07;;;;;;;4.22;3.00;;;;;;;23.19;56.80;96967.78;5022471;28;20030;-59
2021/07/07 03:38:32;;;;;;;6.28;3.17;;;;;;;23.16;56.95;96974.53;5031751;28;20466;-58
2021/07/07 03:40:59;;;;;;;6.20;3.30;;;;;;;23.03;57.73;96982.75;5028408;28;20029;-58
2021/07/07 03:43:24;;;;;;;6.28;3.50;;;;;;;23.01;57.78;96988.44;5013366;28;20050;-59
2021/07/07 03:45:50;;;;;;;6.57;3.30;;;;;;;23.02;58.05;96986.53;5013114;28;20037;-59
2021/07/07 03:48:15;;;;;;;5.25;3.42;;;;;;;22.89;58.81;96984.66;5012004;28;20045;-60
2021/07/07 03:50:41;;;;;;;8.73;3.60;;;;;;;22.71;59.68;96986.09;5013170;28;20029;-60
2021/07/07 03:53:07;;;;;;;7.57;3.70;;;;;;;22.74;59.57;96984.84;5026174;28;20063;-59
2021/07/07 03:55:33;;;;;;;7.70;3.72;;;;;;;22.69;60.16;96981.91;5030919;28;20052;-60
2021/07/07 03:57:59;;;;;;;6.55;3.67;;;;;;;22.50;60.56;96984.41;5031680;28;20447;-59
2021/07/07 04:00:26;;;;;;;6.00;3.80;;;;;;;22.48;60.81;96988.41;5032990;28;20029;-59
2021/07/07 04:02:53;;;;;;;4.95;3.53;;;;;;;22.46;61.25;96993.25;5025946;28;20390;-59
2021/07/07 04:05:18;;;;;;;10.07;3.63;;;;;;;22.36;61.83;96991.75;4995485;28;20034;-59
2021/07/07 04:07:44;;;;;;;5.25;3.85;;;;;;;22.41;61.34;96996.63;5012772;28;20036;-60
2021/07/07 04:10:11;;;;;;;9.35;4.00;;;;;;;22.58;61.47;97002.53;5011908;28;20113;-58
2021/07/07 04:12:38;;;;;;;9.23;4.18;;;;;;;22.57;61.92;97004.44;5023353;28;20028;-58
2021/07/07 04:15:04;;;;;;;7.30;4.13;;;;;;;22.48;62.58;97010.31;5035773;28;20033;-58
2021/07/07 04:17:30;;;;;;;7.32;4.20;;;;;;;22.46;62.51;97013.28;5035333;28;20036;-59
2021/07/07 04:19:55;;;;;;;8.10;4.43;;;;;;;22.47;62.17;97009.47;5036891;28;20029;-59
2021/07/07 04:22:21;;;;;;;7.18;4.18;;;;;;;22.41;63.02;97010.31;5036867;28;20017;-58
2021/07/07 04:24:46;;;;;;;8.30;4.13;;;;;;;22.50;62.24;96998.13;5036667;28;20033;-57
2021/07/07 04:27:12;;;;;;;9.57;4.10;;;;;;;22.51;62.54;97002.50;5035609;28;20040;-58
2021/07/07 04:29:37;;;;;;;9.00;4.00;;;;;;;22.39;62.96;97012.41;5025994;28;20034;-57
2021/07/07 04:32:03;;;;;;;7.38;4.20;;;;;;;22.43;63.44;97012.84;5016860;28;20505;-55
2021/07/07 04:34:28;;;;;;;9.32;4.43;;;;;;;22.44;63.71;97015.38;5027594;28;20026;-55
2021/07/07 04:36:54;;;;;;;8.68;4.05;;;;;;;22.37;63.61;97023.56;5024360;28;20095;-57
2021/07/07 04:39:19;;;;;;;10.60;4.22;;;;;;;22.27;63.75;97022.25;5026902;28;20022;-58
2021/07/07 04:41:45;;;;;;;9.52;4.50;;;;;;;22.22;64.30;97018.22;5031586;28;20030;-58
2021/07/07 04:44:10;;;;;;;9.20;4.50;;;;;;;22.20;64.22;97019.47;5036296;28;20081;-57
2021/07/07 04:46:36;;;;;;;7.47;4.60;;;;;;;22.28;63.49;97027.50;5034166;28;20527;-58
2021/07/07 04:49:20;;;;;;;11.25;4.80;;;;;;;22.18;64.44;97030.66;5048773;28;20033;-57
2021/07/07 04:51:45;;;;;;;8.48;4.70;;;;;;;22.21;63.76;97032.97;5055801;28;20100;-57
2021/07/07 04:54:11;;;;;;;10.07;4.50;;;;;;;22.10;65.48;97033.56;5055906;28;20108;-57
2021/07/07 04:56:36;;;;;;;7.85;4.53;;;;;;;21.99;65.44;97039.63;5054269;28;20021;-57
2021/07/07 04:59:01;;;;;;;8.52;4.30;;;;;;;22.03;65.66;97038.16;5046315;28;20539;-58
2021/07/07 05:01:27;;;;;;;11.57;5.15;;;;;;;22.19;65.06;97037.81;5034289;28;20026;-57
2021/07/07 05:03:52;;;;;;;7.65;4.68;;;;;;;22.13;65.71;97043.25;5015832;28;20061;-58
2021/07/07 05:06:18;;;;;;;11.20;5.07;;;;;;;22.03;65.86;97041.75;5026509;28;20033;-58
2021/07/07 05:08:43;;;;;;;7.57;5.03;;;;;;;22.14;65.23;97037.59;5035583;28;20087;-57
2021/07/07 05:11:09;;;;;;;11.18;4.68;;;;;;;22.20;65.28;97046.88;5035787;28;20116;-58
2021/07/07 05:13:36;;;;;;;9.90;4.88;;;;;;;22.15;65.52;97042.00;5034395;28;20029;-57
2021/07/07 05:16:02;;;;;;;9.43;5.07;;;;;;;22.33;64.31;97044.19;5033663;28;20094;-57
2021/07/07 05:18:27;;;;;;;8.85;5.30;;;;;;;22.49;63.67;97043.00;5035130;28;20473;-57
2021/07/07 05:20:53;;;;;;;11.35;5.35;;;;;;;22.57;63.26;97050.19;5034301;28;20076;-58
2021/07/07 05:23:18;;;;;;;9.85;5.15;;;;;;;22.74;63.03;97051.50;5033152;28;20029;-59
2021/07/07 05:25:45;;;;;;;11.38;5.40;;;;;;;22.87;62.31;97050.66;5032294;28;20032;-59
2021/07/07 05:28:11;;;;;;;9.60;5.43;;;;;;;22.80;62.66;97051.72;5027482;28;20033;-58
2021/07/07 05:30:37;;;;;;;9.35;5.47;;;;;;;22.91;62.44;97048.34;5032247;28;20033;-58
2021/07/07 05:33:03;;;;;;;13.88;8.23;;;;;;;22.94;62.02;97055.31;5031532;28;20037;-57
2021/07/07 05:35:28;;;;;;;9.85;6.68;;;;;;;22.83;63.28;97056.78;5033171;28;20030;-56
2021/07/07 05:37:54;;;;;;;13.07;7.93;;;;;;;22.93;62.38;97057.22;5033217;28;20387;-55
2021/07/07 05:40:21;;;;;;;11.35;8.90;;;;;;;22.94;62.41;97055.31;5031969;28;20025;-56
2021/07/07 05:42:53;;;;;;;14.50;8.40;;;;;;;22.94;63.50;97058.88;5051220;28;20522;-53
2021/07/07 05:45:20;;;;;;;15.82;8.73;;;;;;;22.96;63.78;97055.97;5031900;28;20022;-58
2021/07/07 05:47:46;;;;;;;14.02;9.95;;;;;;;23.13;62.58;97062.75;5022552;28;20021;-56
2021/07/07 05:50:12;;;;;;;20.42;11.55;;;;;;;23.12;62.66;97066.50;5022713;28;20386;-56
2021/07/07 05:52:37;;;;;;;14.57;9.15;;;;;;;23.19;62.85;97064.63;5030512;28;20025;-51
2021/07/07 05:55:03;;;;;;;10.20;6.78;;;;;;;23.27;62.32;97074.56;5025589;28;20359;-54
2021/07/07 05:57:38;;;;;;;13.75;6.28;;;;;;;23.26;62.14;97072.03;5028288;28;20025;-54
2021/07/07 06:00:08;;;;;;;10.88;5.80;;;;;;;23.44;61.73;97069.50;5025496;28;20168;-55
2021/07/07 06:02:34;;;;;;;11.52;5.50;;;;;;;23.53;61.96;97065.47;5025435;28;20100;-58
2021/07/07 06:04:59;;;;;;;9.68;5.72;;;;;;;23.37;61.96;97071.38;5022203;28;20482;-58
2021/07/07 06:07:25;;;;;;;10.10;5.90;;;;;;;23.60;61.03;97078.31;5019930;28;20025;-58
2021/07/07 06:09:50;;;;;;;11.00;5.38;;;;;;;23.75;61.21;97076.22;5021929;28;20075;-58
2021/07/07 06:12:15;;;;;;;12.27;6.22;;;;;;;23.92;60.86;97073.88;5025581;28;20494;-58
2021/07/07 06:14:41;;;;;;;15.95;8.40;;;;;;;24.07;61.35;97076.38;5026970;28;20044;-59
2021/07/07 06:17:06;;;;;;;13.27;7.93;;;;;;;24.16;60.32;97083.31;5023331;28;20026;-58
2021/07/07 06:19:32;;;;;;;12.57;6.05;;;;;;;24.17;59.89;97089.66;5005964;28;20260;-58
2021/07/07 06:22:00;;;;;;;11.10;5.85;;;;;;;24.24;59.91;97094.06;5022009;28;20017;-58
2021/07/07 06:24:26;;;;;;;11.65;6.60;;;;;;;24.41;59.45;97099.06;5018222;28;20022;-59
2021/07/07 06:26:51;;;;;;;17.35;5.75;;;;;;;24.49;58.68;97106.22;5019715;28;20535;-59
2021/07/07 06:29:17;;;;;;;9.60;5.80;;;;;;;24.62;57.96;97106.19;5020294;28;20452;-60
2021/07/07 06:31:43;;;;;;;9.05;5.93;;;;;;;24.65;57.40;97103.03;5021598;28;20050;-58
2021/07/07 06:34:09;;;;;;;8.73;4.80;;;;;;;24.66;57.71;97101.09;5022102;28;20098;-58
2021/07/07 06:36:34;;;;;;;16.13;9.10;;;;;;;24.61;58.38;97100.88;5021333;28;20108;-59
2021/07/07 06:38:59;;;;;;;10.65;5.40;;;;;;;24.65;57.69;97105.78;5025092;28;20555;-58
2021/07/07 06:41:25;;;;;;;13.27;5.40;;;;;;;24.80;57.45;97108.22;5022026;28;20410;-59
2021/07/07 06:43:50;;;;;;;9.40;5.80;;;;;;;24.76;57.82;97107.00;5019479;28;20068;-59
2021/07/07 06:46:16;;;;;;;9.70;5.53;;;;;;;24.87;57.94;97119.19;5029027;28;20053;-59
2021/07/07 06:48:42;;;;;;;16.67;5.53;;;;;;;24.82;58.53;97105.25;5030250;28;20379;-58
2021/07/07 06:51:07;;;;;;;8.40;4.70;;;;;;;24.78;57.54;97113.09;5018405;28;20017;-58
2021/07/07 06:53:32;;;;;;;9.77;5.35;;;;;;;24.72;57.45;97103.81;5031401;28;20449;-59
2021/07/07 06:55:58;;;;;;;10.90;5.13;;;;;;;24.56;57.48;97104.31;5037158;28;20071;-59
2021/07/07 06:58:23;;;;;;;13.18;6.65;;;;;;;24.66;56.48;97103.84;5030587;28;20079;-59
2021/07/07 07:00:49;;;;;;;14.38;5.70;;;;;;;24.69;56.20;97107.03;5046941;28;20089;-60
2021/07/07 07:03:14;;;;;;;12.68;7.53;;;;;;;24.72;56.40;97098.31;5037166;28;20024;-59
2021/07/07 07:05:39;;;;;;;10.20;4.85;;;;;;;24.72;55.89;97097.50;5040603;28;20053;-58
2021/07/07 07:08:05;;;;;;;7.88;3.97;;;;;;;24.82;55.11;97102.50;5045196;28;20121;-59
2021/07/07 07:10:31;;;;;;;7.90;3.53;;;;;;;24.90;55.46;97094.81;4984688;28;20036;-59
2021/07/07 07:12:56;;;;;;;8.98;4.20;;;;;;;25.00;55.15;97093.50;5045179;28;20017;-59
2021/07/07 07:15:22;;;;;;;9.23;5.10;;;;;;;25.03;54.13;97099.41;5039393;28;20499;-58
2021/07/07 07:17:47;;;;;;;7.57;3.88;;;;;;;25.01;54.56;97103.44;5037712;28;20029;-57
2021/07/07 07:20:15;;;;;;;7.85;3.97;;;;;;;25.03;54.45;97096.66;5045367;28;20070;-58
2021/07/07 07:55:19;;;;;;;7.15;4.10;;;;;;;25.20;55.65;97115.38;5066315;28;20378;-56
2021/07/07 07:57:44;;;;;;;7.22;4.38;;;;;;;25.20;55.55;97110.72;5066334;28;20086;-55
2021/07/07 08:00:12;;;;;;;10.02;4.63;;;;;;;25.20;55.36;97107.97;5066695;28;20029;-56
2021/07/07 08:02:38;;;;;;;9.77;5.03;;;;;;;25.20;55.14;97107.97;5062273;28;20020;-57
2021/07/07 08:05:04;;;;;;;9.45;4.53;;;;;;;25.29;55.21;97111.28;5064913;28;20448;-55
2021/07/07 08:07:30;;;;;;;10.30;5.00;;;;;;;25.36;55.36;97111.25;5066288;28;20082;-57
2021/07/07 08:09:55;;;;;;;11.40;4.53;;;;;;;25.32;55.73;97116.34;5064598;28;20028;-60
2021/07/07 08:12:22;;;;;;;7.97;4.28;;;;;;;25.35;55.76;97115.09;5064609;28;20104;-54
2021/07/07 08:14:50;;;;;;;9.82;4.70;;;;;;;25.44;55.21;97116.50;5066161;28;20021;-53
2021/07/07 08:17:17;;;;;;;11.68;4.50;;;;;;;25.52;55.11;97107.97;5065039;28;20400;-54
2021/07/07 08:19:42;;;;;;;10.70;4.88;;;;;;;25.58;54.31;97113.66;5064978;28;20062;-55
2021/07/07 08:22:08;;;;;;;9.93;5.03;;;;;;;25.56;54.36;97117.47;5065604;28;20135;-54
2021/07/07 08:24:33;;;;;;;8.15;4.80;;;;;;;25.53;54.27;97117.06;5068348;28;20029;-66
2021/07/07 08:26:59;;;;;;;14.55;5.25;;;;;;;25.67;54.22;97118.63;5067517;28;20016;-64
2021/07/07 08:29:25;;;;;;;10.52;5.05;;;;;;;25.73;54.23;97119.63;5062602;28;20117;-64
2021/07/07 08:31:50;;;;;;;10.85;4.88;;;;;;;25.72;54.03;97129.81;5066446;28;20112;-62
2021/07/07 08:34:16;;;;;;;11.75;5.25;;;;;;;25.70;53.92;97126.44;5064199;28;20028;-61
2021/07/07 08:36:41;;;;;;;10.80;5.03;;;;;;;25.61;53.31;97130.53;5064509;28;20029;-62
2021/07/07 08:39:07;;;;;;;8.82;4.78;;;;;;;25.59;52.90;97127.19;5067046;28;20111;-62
2021/07/07 08:41:33;;;;;;;12.82;5.00;;;;;;;25.50;53.02;97123.84;5068664;28;20029;-62
2021/07/07 08:43:58;;;;;;;9.30;5.10;;;;;;;25.52;53.03;97130.00;5067068;28;20013;-61
2021/07/07 08:46:25;;;;;;;9.13;4.70;;;;;;;25.53;53.55;97136.34;5066987;28;20031;-61
2021/07/07 08:48:50;;;;;;;14.82;5.60;;;;;;;25.47;53.83;97132.56;5068324;28;20147;-61
2021/07/07 08:51:16;;;;;;;10.23;5.82;;;;;;;25.36;53.91;97131.38;5065990;28;20096;-60
2021/07/07 08:53:43;;;;;;;8.45;4.70;;;;;;;25.54;53.87;97141.63;5067363;28;20484;-61
2021/07/07 08:56:08;;;;;;;10.27;6.10;;;;;;;25.81;53.28;97144.13;5067913;28;20106;-62
2021/07/07 08:58:34;;;;;;;10.40;5.90;;;;;;;26.15;52.68;97146.59;5050025;28;20059;-63
2021/07/07 09:01:00;;;;;;;11.57;6.55;;;;;;;26.25;52.08;97152.44;5067593;28;20028;-62
2021/07/07 09:03:25;;;;;;;11.80;6.32;;;;;;;26.62;51.36;97154.34;5067883;28;20104;-63
2021/07/07 09:05:57;;;;;;;12.27;6.25;;;;;;;26.59;51.80;97146.53;5059215;28;20021;-63
2021/07/07 09:08:25;;;;;;;12.02;5.60;;;;;;;26.59;51.32;97149.28;5053702;28;20487;-62
2021/07/07 09:10:51;;;;;;;13.15;7.00;;;;;;;26.36;50.26;97140.66;5053965;28;20023;-62
2021/07/07 09:13:21;;;;;;;12.05;6.93;;;;;;;26.19;51.18;97145.94;5053042;28;20033;-63
2021/07/07 09:15:47;;;;;;;11.93;6.55;;;;;;;26.27;51.50;97149.44;5054401;28;20052;-61
2021/07/07 09:18:33;;;;;;;14.13;7.18;;;;;;;26.44;50.95;97149.69;5054166;28;20070;-61
2021/07/07 09:20:59;;;;;;;11.95;7.28;;;;;;;26.43;49.84;97154.38;5054008;28;20110;-63
2021/07/07 09:23:27;;;;;;;11.40;6.03;;;;;;;26.52;50.88;97153.00;5054370;28;20059;-63
2021/07/07 09:25:55;;;;;;;10.85;6.72;;;;;;;26.56;50.77;97156.97;5053712;28;20029;-66
2021/07/07 09:28:20;;;;;;;12.13;6.40;;;;;;;26.76;49.96;97163.34;5054016;28;20025;-66
2021/07/07 09:30:45;;;;;;;10.32;5.60;;;;;;;26.93;49.45;97166.31;5053743;28;20032;-65
2021/07/07 09:33:11;;;;;;;10.73;5.53;;;;;;;27.00;49.19;97169.81;5053361;28;20036;-66
2021/07/07 09:35:37;;;;;;;10.43;5.72;;;;;;;26.98;49.17;97174.69;5052772;28;20412;-65
2021/07/07 09:38:05;;;;;;;12.20;6.10;;;;;;;27.00;48.56;97164.28;5052937;28;20021;-63
2021/07/07 09:40:31;;;;;;;11.63;5.50;;;;;;;26.98;49.08;97167.28;5051938;28;20534;-64
2021/07/07 09:42:57;;;;;;;10.60;5.50;;;;;;;26.92;48.43;97164.63;5053539;28;20021;-63
2021/07/07 09:45:22;;;;;;;7.63;5.00;;;;;;;26.90;47.49;97160.16;5053861;28;20017;-63
2021/07/07 09:47:49;;;;;;;11.43;5.28;;;;;;;26.94;47.98;97151.41;5052660;28;20021;-63
2021/07/07 09:50:16;;;;;;;12.52;5.75;;;;;;;27.01;47.61;97146.66;5034943;28;20021;-64
2021/07/07 09:52:42;;;;;;;10.73;5.40;;;;;;;27.18;47.86;97149.63;5065458;28;20036;-62
2021/07/07 09:55:09;;;;;;;10.43;5.80;;;;;;;27.23;47.49;97134.03;5071150;28;20596;-63
2021/07/07 09:57:44;;;;;;;8.93;5.60;;;;;;;27.12;47.90;97140.34;5069778;28;20105;-63
2021/07/07 10:00:17;;;;;;;8.60;4.70;;;;;;;27.13;47.34;97144.78;5046318;28;20124;-63
2021/07/07 10:02:43;;;;;;;8.15;3.85;;;;;;;27.26;46.72;97143.75;5050618;28;20656;-64
2021/07/07 10:05:09;;;;;;;7.68;3.90;;;;;;;27.31;46.00;97149.41;5050277;28;20458;-63
2021/07/07 10:07:35;;;;;;;9.35;4.35;;;;;;;27.42;45.89;97145.03;5050847;28;20044;-63
2021/07/07 10:10:01;;;;;;;6.10;3.67;;;;;;;27.34;44.89;97146.19;5048892;28;20490;-66
2021/07/07 10:12:29;;;;;;;5.88;3.17;;;;;;;27.44;44.06;97147.56;5050674;28;20075;-63
2021/07/07 10:14:55;;;;;;;6.68;3.40;;;;;;;27.56;44.16;97145.66;5049318;28;20033;-64
2021/07/07 10:17:21;;;;;;;5.20;3.35;;;;;;;27.62;43.67;97158.53;5031481;28;20074;-64
2021/07/07 10:19:47;;;;;;;12.85;3.85;;;;;;;27.58;43.78;97157.31;5050577;28;20033;-64
2021/07/07 10:22:13;;;;;;;6.95;3.67;;;;;;;27.61;43.82;97161.53;5050444;28;20039;-64
2021/07/07 10:24:39;;;;;;;5.32;3.22;;;;;;;27.76;43.52;97150.00;5049406;28;20087;-62
2021/07/07 10:27:06;;;;;;;5.80;3.10;;;;;;;27.76;42.88;97152.78;5033455;28;20481;-62
2021/07/07 10:29:34;;;;;;;5.47;3.20;;;;;;;27.85;43.16;97165.16;5050749;28;20035;-64
2021/07/07 10:32:01;;;;;;;8.80;3.28;;;;;;;27.81;42.61;97163.97;5050547;28;20080;-64
2021/07/07 10:34:29;;;;;;;9.55;3.60;;;;;;;27.94;42.21;97157.34;5057745;28;20037;-64
2021/07/07 10:36:56;;;;;;;7.78;3.20;;;;;;;27.96;42.72;97169.00;5053910;28;20036;-62
2021/07/07 10:39:22;;;;;;;4.82;3.42;;;;;;;27.93;42.08;97166.72;5070457;28;20542;-63
2021/07/07 10:41:52;;;;;;;7.32;3.92;;;;;;;28.01;42.92;97155.34;5070831;28;20048;-62
2021/07/07 10:44:23;;;;;;;9.13;3.65;;;;;;;28.01;43.48;97161.72;5063954;28;20017;-63
2021/07/07 10:47:11;;;;;;;11.30;4.50;;;;;;;28.20;42.89;97161.59;5053491;28;20088;-63
2021/07/07 10:49:41;;;;;;;6.25;3.00;;;;;;;28.22;41.79;97160.28;5053167;28;20029;-63
2021/07/07 10:52:10;;;;;;;7.05;3.00;;;;;;;28.17;41.79;97159.31;5051324;28;20025;-61
2021/07/07 10:54:37;;;;;;;7.07;3.30;;;;;;;28.21;41.78;97154.97;5051583;28;20048;-61
2021/07/07 10:57:05;;;;;;;5.85;3.38;;;;;;;28.42;42.60;97156.25;5048729;28;20021;-62
2021/07/07 10:59:34;;;;;;;6.97;3.55;;;;;;;28.51;42.50;97146.50;5051309;28;20025;-67
2021/07/07 11:02:24;;;;;;;6.63;3.47;;;;;;;28.32;42.52;97145.00;5051673;28;20051;-61
2021/07/07 11:05:01;;;;;;;10.55;3.40;;;;;;;28.53;42.35;97138.00;5049887;28;20103;-62
2021/07/07 11:07:36;;;;;;;7.18;3.30;;;;;;;28.46;39.56;97137.25;5051275;28;20021;-62
2021/07/07 11:10:15;;;;;;;4.97;2.85;;;;;;;28.60;41.06;97144.22;5052589;28;20021;-62
2021/07/07 11:12:41;;;;;;;4.55;2.95;;;;;;;28.70;40.19;97143.63;5048762;28;20397;-63
2021/07/07 11:15:08;;;;;;;7.30;3.03;;;;;;;28.67;40.59;97142.16;5049010;28;20036;-63
2021/07/07 11:17:44;;;;;;;5.47;2.80;;;;;;;28.59;40.62;97131.47;5052185;28;20032;-61
2021/07/07 11:20:14;;;;;;;6.72;3.10;;;;;;;28.81;40.15;97128.06;5050812;28;20029;-62
2021/07/07 11:23:02;;;;;;;6.47;2.95;;;;;;;29.10;41.21;97131.66;5050008;28;20028;-62
2021/07/07 11:25:28;;;;;;;9.93;3.05;;;;;;;29.33;40.14;97124.34;5050985;28;20037;-65
2021/07/07 11:27:54;;;;;;;11.63;3.25;;;;;;;29.27;40.23;97125.38;5050952;28;20742;-64
2021/07/07 11:30:21;;;;;;;4.85;3.00;;;;;;;29.50;40.55;97125.22;5049585;28;20035;-62
2021/07/07 11:32:48;;;;;;;8.77;3.40;;;;;;;29.57;40.26;97136.16;5049799;28;20028;-62
2021/07/07 11:35:16;;;;;;;4.95;3.00;;;;;;;29.31;39.67;97141.22;5051176;28;20040;-63
2021/07/07 11:37:42;;;;;;;7.30;2.70;;;;;;;29.37;37.66;97147.69;5052061;28;20082;-63
2021/07/07 11:40:10;;;;;;;5.00;2.83;;;;;;;29.46;36.83;97148.97;5052032;28;20529;-63
2021/07/07 11:42:49;;;;;;;4.50;2.60;;;;;;;29.56;37.33;97142.78;5050393;28;20021;-63
2021/07/07 11:45:19;;;;;;;6.90;2.70;;;;;;;29.41;38.36;97150.81;5052711;28;20033;-62
2021/07/07 11:47:49;;;;;;;4.00;2.90;;;;;;;29.37;37.81;97153.22;5051177;28;20485;-61
2021/07/07 11:50:14;;;;;;;6.57;3.28;;;;;;;28.92;37.90;97148.50;5051011;28;20024;-61
2021/07/07 11:53:00;;;;;;;4.22;2.60;;;;;;;28.94;39.38;97147.13;5051428;28;20120;-63
2021/07/07 11:55:47;;;;;;;6.15;2.97;;;;;;;28.61;39.80;97150.56;5051767;28;20033;-63
2021/07/07 11:58:48;;;;;;;9.40;2.90;;;;;;;28.93;40.00;97144.63;5052360;28;20533;-62
2021/07/07 12:01:17;;;;;;;8.95;3.00;;;;;;;29.12;39.52;97150.81;5050709;28;20025;-63
2021/07/07 12:04:00;;;;;;;4.53;2.63;;;;;;;29.10;39.72;97148.28;5052005;28;20111;-63